sensor_id;sensor_type;location;lat;lon;timestamp;pressure;altitude;pressure_sealevel;temperature;humidity
21826;BME280;11075;47.944;11.776;2023-05-21T00:02:04;94420.34;;;7.20;48.76
21826;BME280;11075;47.944;11.776;2023-05-21T00:04:31;94421.97;;;7.04;48.82
21826;BME280;11075;47.944;11.776;2023-05-21T00:06:59;94414.34;;;6.77;49.72
21826;BME280;11075;47.944;11.776;2023-05-21T00:09:26;94415.94;;;6.69;50.01
21826;BME280;11075;47.944;11.776;2023-05-21T00:11:53;94411.25;;;5.71;52.64
21826;BME280;11075;47.944;11.776;2023-05-21T00:14:20;94409.69;;;5.87;52.64
21826;BME280;11075;47.944;11.776;2023-05-21T00:16:47;94405.41;;;6.38;50.93
21826;BME280;11075;47.944;11.776;2023-05-21T00:19:14;94406.53;;;5.94;51.58
21826;BME280;11075;47.944;11.776;2023-05-21T00:21:41;94401.16;;;5.59;52.57
21826;BME280;11075;47.944;11.776;2023-05-21T00:24:11;94394.88;;;6.50;48.69
21826;BME280;11075;47.944;11.776;2023-05-21T00:26:38;94394.59;;;6.09;49.70
21826;BME280;11075;47.944;11.776;2023-05-21T00:29:05;94393.47;;;5.66;51.25
21826;BME280;11075;47.944;11.776;2023-05-21T00:31:32;94395.22;;;5.80;50.92
21826;BME280;11075;47.944;11.776;2023-05-21T00:33:59;94397.88;;;6.40;49.18
21826;BME280;11075;47.944;11.776;2023-05-21T00:36:26;94406.91;;;5.35;52.62
21826;BME280;11075;47.944;11.776;2023-05-21T00:38:53;94398.75;;;6.79;48.48
21826;BME280;11075;47.944;11.776;2023-05-21T00:41:20;94400.72;;;6.18;49.52
21826;BME280;11075;47.944;11.776;2023-05-21T00:43:48;94397.72;;;5.76;49.96
21826;BME280;11075;47.944;11.776;2023-05-21T00:46:20;94403.25;;;6.06;48.10
21826;BME280;11075;47.944;11.776;2023-05-21T00:48:48;94400.88;;;5.78;46.98
21826;BME280;11075;47.944;11.776;2023-05-21T00:51:16;94391.91;;;6.17;48.54
21826;BME280;11075;47.944;11.776;2023-05-21T00:53:44;94385.78;;;6.89;45.33
21826;BME280;11075;47.944;11.776;2023-05-21T00:56:12;94392.22;;;5.98;48.95
21826;BME280;11075;47.944;11.776;2023-05-21T00:58:39;94393.47;;;6.27;48.60
21826;BME280;11075;47.944;11.776;2023-05-21T01:01:07;94390.94;;;6.56;47.54
21826;BME280;11075;47.944;11.776;2023-05-21T01:03:39;94381.84;;;6.40;47.84
21826;BME280;11075;47.944;11.776;2023-05-21T01:06:08;94384.00;;;6.38;48.05
21826;BME280;11075;47.944;11.776;2023-05-21T01:08:36;94373.84;;;5.80;48.79
21826;BME280;11075;47.944;11.776;2023-05-21T01:11:04;94378.94;;;6.62;47.63
21826;BME280;11075;47.944;11.776;2023-05-21T01:13:34;94376.47;;;6.40;47.71
21826;BME280;11075;47.944;11.776;2023-05-21T01:16:03;94378.91;;;6.80;45.92
21826;BME280;11075;47.944;11.776;2023-05-21T01:18:33;94378.38;;;6.05;48.37
21826;BME280;11075;47.944;11.776;2023-05-21T01:21:04;94377.44;;;6.01;48.79
21826;BME280;11075;47.944;11.776;2023-05-21T01:23:33;94378.47;;;5.40;51.36
21826;BME280;11075;47.944;11.776;2023-05-21T01:26:00;94377.50;;;5.27;52.20
21826;BME280;11075;47.944;11.776;2023-05-21T01:28:27;94367.16;;;5.51;51.65
21826;BME280;11075;47.944;11.776;2023-05-21T01:30:57;94372.66;;;5.46;51.13
21826;BME280;11075;47.944;11.776;2023-05-21T01:33:41;94373.22;;;5.17;51.90
21826;BME280;11075;47.944;11.776;2023-05-21T01:36:21;94374.63;;;5.15;51.69
21826;BME280;11075;47.944;11.776;2023-05-21T01:39:06;94368.31;;;5.76;48.93
21826;BME280;11075;47.944;11.776;2023-05-21T01:41:37;94368.63;;;5.75;49.23
21826;BME280;11075;47.944;11.776;2023-05-21T01:44:07;94362.66;;;5.03;50.01
21826;BME280;11075;47.944;11.776;2023-05-21T01:46:36;94363.44;;;5.78;47.37
21826;BME280;11075;47.944;11.776;2023-05-21T01:49:04;94369.75;;;5.91;46.63
21826;BME280;11075;47.944;11.776;2023-05-21T01:51:33;94364.53;;;6.12;45.67
21826;BME280;11075;47.944;11.776;2023-05-21T01:54:01;94352.56;;;6.18;44.86
21826;BME280;11075;47.944;11.776;2023-05-21T01:56:28;94362.56;;;5.26;49.24
21826;BME280;11075;47.944;11.776;2023-05-21T01:58:55;94365.47;;;5.64;48.56
21826;BME280;11075;47.944;11.776;2023-05-21T02:01:25;94363.34;;;6.64;44.87
21826;BME280;11075;47.944;11.776;2023-05-21T02:03:56;94359.78;;;6.26;44.89
21826;BME280;11075;47.944;11.776;2023-05-21T02:06:24;94361.03;;;6.46;44.86
21826;BME280;11075;47.944;11.776;2023-05-21T02:08:51;94367.38;;;6.07;46.61
21826;BME280;11075;47.944;11.776;2023-05-21T02:11:18;94359.50;;;6.02;46.29
21826;BME280;11075;47.944;11.776;2023-05-21T02:13:44;94362.81;;;5.98;44.91
21826;BME280;11075;47.944;11.776;2023-05-21T02:16:11;94355.69;;;6.92;43.06
21826;BME280;11075;47.944;11.776;2023-05-21T02:18:41;94359.16;;;6.46;43.40
21826;BME280;11075;47.944;11.776;2023-05-21T02:21:10;94349.44;;;6.16;43.69
21826;BME280;11075;47.944;11.776;2023-05-21T02:23:37;94363.13;;;5.62;47.52
21826;BME280;11075;47.944;11.776;2023-05-21T02:26:04;94355.66;;;6.63;45.77
21826;BME280;11075;47.944;11.776;2023-05-21T02:28:31;94347.34;;;5.26;49.37
21826;BME280;11075;47.944;11.776;2023-05-21T02:30:58;94365.91;;;5.49;47.56
21826;BME280;11075;47.944;11.776;2023-05-21T02:33:25;94361.56;;;5.61;47.76
21826;BME280;11075;47.944;11.776;2023-05-21T02:35:52;94361.50;;;4.56;50.05
21826;BME280;11075;47.944;11.776;2023-05-21T02:38:19;94359.03;;;5.74;48.59
21826;BME280;11075;47.944;11.776;2023-05-21T02:40:49;94363.59;;;5.64;47.71
21826;BME280;11075;47.944;11.776;2023-05-21T02:43:19;94357.91;;;5.49;48.37
21826;BME280;11075;47.944;11.776;2023-05-21T02:45:46;94357.75;;;4.26;51.69
21826;BME280;11075;47.944;11.776;2023-05-21T02:48:13;94347.88;;;4.04;52.65
21826;BME280;11075;47.944;11.776;2023-05-21T02:50:41;94350.91;;;3.89;52.39
21826;BME280;11075;47.944;11.776;2023-05-21T02:53:08;94348.03;;;4.30;51.41
21826;BME280;11075;47.944;11.776;2023-05-21T02:55:35;94360.41;;;4.57;51.11
21826;BME280;11075;47.944;11.776;2023-05-21T02:58:02;94358.00;;;4.69;49.76
21826;BME280;11075;47.944;11.776;2023-05-21T03:00:29;94354.56;;;4.47;50.71
21826;BME280;11075;47.944;11.776;2023-05-21T03:02:56;94354.06;;;5.15;49.47
21826;BME280;11075;47.944;11.776;2023-05-21T03:05:23;94357.50;;;5.07;48.60
21826;BME280;11075;47.944;11.776;2023-05-21T03:07:50;94350.97;;;4.82;48.98
21826;BME280;11075;47.944;11.776;2023-05-21T03:10:16;94348.72;;;5.15;48.21
21826;BME280;11075;47.944;11.776;2023-05-21T03:12:43;94363.72;;;4.32;50.64
21826;BME280;11075;47.944;11.776;2023-05-21T03:15:11;94360.69;;;4.47;50.37
21826;BME280;11075;47.944;11.776;2023-05-21T03:17:40;94351.91;;;5.34;47.48
21826;BME280;11075;47.944;11.776;2023-05-21T03:20:08;94345.03;;;4.94;48.75
21826;BME280;11075;47.944;11.776;2023-05-21T03:22:42;94358.59;;;5.06;49.24
21826;BME280;11075;47.944;11.776;2023-05-21T03:25:11;94352.22;;;4.23;51.84
21826;BME280;11075;47.944;11.776;2023-05-21T03:27:38;94344.94;;;5.16;48.86
21826;BME280;11075;47.944;11.776;2023-05-21T03:30:15;94355.16;;;5.14;47.52
21826;BME280;11075;47.944;11.776;2023-05-21T03:32:58;94353.72;;;4.37;49.35
21826;BME280;11075;47.944;11.776;2023-05-21T03:35:26;94353.34;;;5.49;45.68
21826;BME280;11075;47.944;11.776;2023-05-21T03:37:53;94356.16;;;5.44;44.57
21826;BME280;11075;47.944;11.776;2023-05-21T03:40:20;94345.16;;;6.32;43.11
21826;BME280;11075;47.944;11.776;2023-05-21T03:42:47;94354.97;;;5.85;43.78
21826;BME280;11075;47.944;11.776;2023-05-21T03:45:14;94342.75;;;6.56;42.65
21826;BME280;11075;47.944;11.776;2023-05-21T03:48:19;94354.38;;;4.43;50.28
21826;BME280;11075;47.944;11.776;2023-05-21T03:50:46;94354.97;;;5.02;49.42
21826;BME280;11075;47.944;11.776;2023-05-21T03:53:14;94359.44;;;4.76;50.27
21826;BME280;11075;47.944;11.776;2023-05-21T03:55:41;94355.00;;;4.71;50.67
21826;BME280;11075;47.944;11.776;2023-05-21T03:58:08;94355.34;;;5.35;48.97
21826;BME280;11075;47.944;11.776;2023-05-21T04:00:36;94356.28;;;4.74;50.07
21826;BME280;11075;47.944;11.776;2023-05-21T04:03:04;94358.13;;;5.04;48.78
21826;BME280;11075;47.944;11.776;2023-05-21T04:05:33;94353.69;;;4.60;50.70
21826;BME280;11075;47.944;11.776;2023-05-21T04:08:00;94353.75;;;4.46;50.49
21826;BME280;11075;47.944;11.776;2023-05-21T04:10:27;94354.00;;;5.72;46.53
21826;BME280;11075;47.944;11.776;2023-05-21T04:12:54;94347.94;;;5.15;46.46
21826;BME280;11075;47.944;11.776;2023-05-21T04:15:21;94341.88;;;6.00;44.67
21826;BME280;11075;47.944;11.776;2023-05-21T04:17:47;94353.53;;;5.53;45.66
21826;BME280;11075;47.944;11.776;2023-05-21T04:20:16;94350.69;;;5.58;45.45
21826;BME280;11075;47.944;11.776;2023-05-21T04:22:43;94348.16;;;6.13;43.96
21826;BME280;11075;47.944;11.776;2023-05-21T04:25:10;94345.78;;;6.29;43.20
21826;BME280;11075;47.944;11.776;2023-05-21T04:27:37;94348.91;;;6.48;42.68
21826;BME280;11075;47.944;11.776;2023-05-21T04:30:06;94354.06;;;7.00;41.80
21826;BME280;11075;47.944;11.776;2023-05-21T04:32:35;94354.47;;;6.09;43.25
21826;BME280;11075;47.944;11.776;2023-05-21T04:35:02;94361.91;;;6.76;41.75
21826;BME280;11075;47.944;11.776;2023-05-21T04:37:30;94363.44;;;6.04;42.69
21826;BME280;11075;47.944;11.776;2023-05-21T04:40:01;94360.59;;;6.26;42.41
21826;BME280;11075;47.944;11.776;2023-05-21T04:42:29;94366.25;;;6.89;41.24
21826;BME280;11075;47.944;11.776;2023-05-21T04:44:58;94356.16;;;6.30;42.12
21826;BME280;11075;47.944;11.776;2023-05-21T04:47:27;94372.41;;;6.89;41.33
21826;BME280;11075;47.944;11.776;2023-05-21T04:50:02;94369.53;;;7.33;39.92
21826;BME280;11075;47.944;11.776;2023-05-21T04:52:29;94368.44;;;7.34;40.31
21826;BME280;11075;47.944;11.776;2023-05-21T04:54:57;94359.06;;;7.90;40.03
21826;BME280;11075;47.944;11.776;2023-05-21T04:57:24;94358.78;;;7.62;41.02
21826;BME280;11075;47.944;11.776;2023-05-21T04:59:51;94356.84;;;8.13;41.16
21826;BME280;11075;47.944;11.776;2023-05-21T05:02:18;94359.97;;;8.48;39.94
21826;BME280;11075;47.944;11.776;2023-05-21T05:04:45;94359.16;;;8.02;41.57
21826;BME280;11075;47.944;11.776;2023-05-21T05:07:12;94348.41;;;7.60;42.76
21826;BME280;11075;47.944;11.776;2023-05-21T05:09:39;94364.47;;;7.40;41.73
21826;BME280;11075;47.944;11.776;2023-05-21T05:12:06;94356.44;;;7.81;40.44
21826;BME280;11075;47.944;11.776;2023-05-21T05:14:33;94365.66;;;7.92;39.51
21826;BME280;11075;47.944;11.776;2023-05-21T05:17:00;94349.22;;;6.47;41.79
21826;BME280;11075;47.944;11.776;2023-05-21T05:19:27;94361.78;;;8.56;39.02
21826;BME280;11075;47.944;11.776;2023-05-21T05:21:55;94357.88;;;6.35;41.33
21826;BME280;11075;47.944;11.776;2023-05-21T05:24:22;94348.78;;;8.13;40.21
21826;BME280;11075;47.944;11.776;2023-05-21T05:26:50;94358.22;;;8.19;40.98
21826;BME280;11075;47.944;11.776;2023-05-21T05:29:17;94346.03;;;8.01;40.92
21826;BME280;11075;47.944;11.776;2023-05-21T05:31:43;94358.34;;;8.02;41.46
21826;BME280;11075;47.944;11.776;2023-05-21T05:34:11;94366.81;;;7.41;42.41
21826;BME280;11075;47.944;11.776;2023-05-21T05:36:38;94358.00;;;7.82;42.75
21826;BME280;11075;47.944;11.776;2023-05-21T05:39:05;94360.22;;;9.37;41.20
21826;BME280;11075;47.944;11.776;2023-05-21T05:41:31;94357.75;;;8.50;42.08
21826;BME280;11075;47.944;11.776;2023-05-21T05:43:58;94358.66;;;7.79;41.35
21826;BME280;11075;47.944;11.776;2023-05-21T05:48:55;94359.41;;;9.36;38.72
21826;BME280;11075;47.944;11.776;2023-05-21T05:51:22;94367.47;;;8.87;38.62
21826;BME280;11075;47.944;11.776;2023-05-21T05:53:50;94373.16;;;10.52;36.24
21826;BME280;11075;47.944;11.776;2023-05-21T05:56:16;94383.38;;;10.74;35.56
21826;BME280;11075;47.944;11.776;2023-05-21T05:58:43;94383.41;;;10.46;35.95
21826;BME280;11075;47.944;11.776;2023-05-21T06:01:12;94351.78;;;9.75;36.94
21826;BME280;11075;47.944;11.776;2023-05-21T06:03:39;94362.97;;;9.77;37.28
21826;BME280;11075;47.944;11.776;2023-05-21T06:06:13;94340.03;;;8.37;39.05
21826;BME280;11075;47.944;11.776;2023-05-21T06:08:40;94356.28;;;9.59;36.82
21826;BME280;11075;47.944;11.776;2023-05-21T06:11:07;94352.75;;;8.28;38.74
21826;BME280;11075;47.944;11.776;2023-05-21T06:13:34;94360.69;;;8.57;37.99
21826;BME280;11075;47.944;11.776;2023-05-21T06:16:02;94349.19;;;8.03;39.58
21826;BME280;11075;47.944;11.776;2023-05-21T06:18:29;94366.94;;;9.43;37.55
21826;BME280;11075;47.944;11.776;2023-05-21T06:20:56;94363.13;;;8.50;38.77
21826;BME280;11075;47.944;11.776;2023-05-21T06:23:23;94359.25;;;8.72;38.43
21826;BME280;11075;47.944;11.776;2023-05-21T06:25:50;94358.06;;;7.95;39.32
21826;BME280;11075;47.944;11.776;2023-05-21T06:28:18;94374.78;;;8.66;37.97
21826;BME280;11075;47.944;11.776;2023-05-21T06:30:47;94375.88;;;9.71;36.79
21826;BME280;11075;47.944;11.776;2023-05-21T06:33:14;94364.63;;;8.72;37.87
21826;BME280;11075;47.944;11.776;2023-05-21T06:35:42;94373.06;;;10.20;36.72
21826;BME280;11075;47.944;11.776;2023-05-21T06:38:10;94373.63;;;9.73;36.52
21826;BME280;11075;47.944;11.776;2023-05-21T06:40:36;94362.78;;;10.10;36.03
21826;BME280;11075;47.944;11.776;2023-05-21T06:43:04;94371.16;;;9.80;36.60
21826;BME280;11075;47.944;11.776;2023-05-21T06:45:49;94379.13;;;9.65;36.06
21826;BME280;11075;47.944;11.776;2023-05-21T06:48:26;94363.31;;;9.75;37.28
21826;BME280;11075;47.944;11.776;2023-05-21T06:50:53;94374.31;;;8.97;38.10
21826;BME280;11075;47.944;11.776;2023-05-21T06:53:20;94369.84;;;9.38;37.73
21826;BME280;11075;47.944;11.776;2023-05-21T06:55:47;94373.84;;;9.80;37.07
21826;BME280;11075;47.944;11.776;2023-05-21T06:58:37;94357.75;;;9.44;37.23
21826;BME280;11075;47.944;11.776;2023-05-21T07:01:04;94386.00;;;10.02;36.53
21826;BME280;11075;47.944;11.776;2023-05-21T07:03:31;94388.25;;;10.40;35.52
21826;BME280;11075;47.944;11.776;2023-05-21T07:05:58;94371.84;;;9.04;37.76
21826;BME280;11075;47.944;11.776;2023-05-21T07:08:25;94392.38;;;10.50;36.08
21826;BME280;11075;47.944;11.776;2023-05-21T07:10:53;94384.41;;;9.25;37.61
21826;BME280;11075;47.944;11.776;2023-05-21T07:13:21;94378.81;;;9.17;38.03
21826;BME280;11075;47.944;11.776;2023-05-21T07:15:48;94396.16;;;9.44;37.46
21826;BME280;11075;47.944;11.776;2023-05-21T07:18:17;94399.97;;;9.43;37.11
21826;BME280;11075;47.944;11.776;2023-05-21T07:20:44;94387.34;;;10.64;35.93
21826;BME280;11075;47.944;11.776;2023-05-21T07:23:13;94383.69;;;9.89;36.18
21826;BME280;11075;47.944;11.776;2023-05-21T07:25:40;94384.50;;;10.29;35.26
21826;BME280;11075;47.944;11.776;2023-05-21T07:28:07;94382.06;;;10.68;35.45
21826;BME280;11075;47.944;11.776;2023-05-21T07:30:35;94397.72;;;11.88;33.86
21826;BME280;11075;47.944;11.776;2023-05-21T07:33:05;94381.34;;;11.30;34.14
21826;BME280;11075;47.944;11.776;2023-05-21T07:35:32;94395.69;;;12.20;32.78
21826;BME280;11075;47.944;11.776;2023-05-21T07:37:59;94383.44;;;11.05;34.73
21826;BME280;11075;47.944;11.776;2023-05-21T07:40:26;94394.97;;;12.62;32.71
21826;BME280;11075;47.944;11.776;2023-05-21T07:42:53;94373.44;;;12.65;33.26
21826;BME280;11075;47.944;11.776;2023-05-21T07:45:22;94386.47;;;13.25;32.49
21826;BME280;11075;47.944;11.776;2023-05-21T07:47:49;94385.22;;;12.77;32.61
21826;BME280;11075;47.944;11.776;2023-05-21T07:50:16;94395.22;;;14.20;31.18
21826;BME280;11075;47.944;11.776;2023-05-21T07:52:43;94396.38;;;14.83;30.76
21826;BME280;11075;47.944;11.776;2023-05-21T07:55:10;94374.38;;;13.94;32.09
21826;BME280;11075;47.944;11.776;2023-05-21T07:57:39;94377.28;;;14.76;31.12
21826;BME280;11075;47.944;11.776;2023-05-21T08:00:09;94360.97;;;15.53;31.63
21826;BME280;11075;47.944;11.776;2023-05-21T08:02:49;94364.78;;;15.01;31.79
21826;BME280;11075;47.944;11.776;2023-05-21T08:05:18;94376.94;;;15.18;30.84
21826;BME280;11075;47.944;11.776;2023-05-21T08:07:47;94378.59;;;15.81;30.79
21826;BME280;11075;47.944;11.776;2023-05-21T08:10:14;94381.75;;;15.90;30.58
21826;BME280;11075;47.944;11.776;2023-05-21T08:12:45;94378.16;;;15.75;30.75
21826;BME280;11075;47.944;11.776;2023-05-21T08:15:12;94373.41;;;15.14;30.88
21826;BME280;11075;47.944;11.776;2023-05-21T08:17:42;94377.69;;;15.63;30.68
21826;BME280;11075;47.944;11.776;2023-05-21T08:20:10;94387.66;;;15.04;29.95
21826;BME280;11075;47.944;11.776;2023-05-21T08:22:37;94401.97;;;15.96;29.15
21826;BME280;11075;47.944;11.776;2023-05-21T08:25:06;94420.97;;;16.58;28.07
21826;BME280;11075;47.944;11.776;2023-05-21T08:27:34;94431.56;;;16.08;27.75
21826;BME280;11075;47.944;11.776;2023-05-21T08:30:01;94421.44;;;16.85;27.11
21826;BME280;11075;47.944;11.776;2023-05-21T08:32:28;94394.50;;;15.79;29.04
21826;BME280;11075;47.944;11.776;2023-05-21T08:34:55;94398.47;;;15.92;28.73
21826;BME280;11075;47.944;11.776;2023-05-21T08:38:01;94418.28;;;16.72;27.85
21826;BME280;11075;47.944;11.776;2023-05-21T08:40:38;94402.13;;;15.63;29.09
21826;BME280;11075;47.944;11.776;2023-05-21T08:43:07;94371.47;;;14.74;30.36
21826;BME280;11075;47.944;11.776;2023-05-21T08:45:52;94379.25;;;16.26;29.93
21826;BME280;11075;47.944;11.776;2023-05-21T08:48:22;94375.25;;;14.66;31.00
21826;BME280;11075;47.944;11.776;2023-05-21T08:50:51;94395.25;;;16.45;28.93
21826;BME280;11075;47.944;11.776;2023-05-21T08:53:24;94393.56;;;16.15;29.67
21826;BME280;11075;47.944;11.776;2023-05-21T08:55:55;94400.47;;;16.93;29.37
21826;BME280;11075;47.944;11.776;2023-05-21T08:58:31;94399.38;;;17.65;28.89
21826;BME280;11075;47.944;11.776;2023-05-21T09:00:59;94375.66;;;17.19;29.55
21826;BME280;11075;47.944;11.776;2023-05-21T09:03:27;94408.31;;;18.01;28.13
21826;BME280;11075;47.944;11.776;2023-05-21T09:05:55;94403.16;;;18.42;28.39
21826;BME280;11075;47.944;11.776;2023-05-21T09:08:30;94385.72;;;17.08;29.24
21826;BME280;11075;47.944;11.776;2023-05-21T09:11:00;94396.41;;;18.79;28.27
21826;BME280;11075;47.944;11.776;2023-05-21T09:13:42;94422.78;;;19.62;26.77
21826;BME280;11075;47.944;11.776;2023-05-21T09:16:21;94390.28;;;16.61;28.18
21826;BME280;11075;47.944;11.776;2023-05-21T09:18:48;94385.72;;;17.08;28.71
21826;BME280;11075;47.944;11.776;2023-05-21T09:23:55;94384.22;;;17.60;28.97
21826;BME280;11075;47.944;11.776;2023-05-21T09:26:23;94407.09;;;18.30;27.55
21826;BME280;11075;47.944;11.776;2023-05-21T09:28:58;94433.97;;;19.82;26.03
21826;BME280;11075;47.944;11.776;2023-05-21T09:31:26;94419.09;;;19.34;26.56
21826;BME280;11075;47.944;11.776;2023-05-21T09:33:53;94413.97;;;19.44;27.05
21826;BME280;11075;47.944;11.776;2023-05-21T09:36:23;94417.69;;;19.05;26.27
21826;BME280;11075;47.944;11.776;2023-05-21T09:38:50;94407.88;;;19.70;26.33
21826;BME280;11075;47.944;11.776;2023-05-21T09:41:18;94425.41;;;18.16;26.10
21826;BME280;11075;47.944;11.776;2023-05-21T09:43:48;94427.59;;;18.70;25.47
21826;BME280;11075;47.944;11.776;2023-05-21T09:46:19;94424.31;;;19.66;25.28
21826;BME280;11075;47.944;11.776;2023-05-21T09:48:46;94404.03;;;17.96;26.05
21826;BME280;11075;47.944;11.776;2023-05-21T09:51:17;94438.09;;;20.42;24.13
21826;BME280;11075;47.944;11.776;2023-05-21T09:53:55;94437.97;;;20.86;24.39
21826;BME280;11075;47.944;11.776;2023-05-21T09:56:28;94430.00;;;20.65;24.67
21826;BME280;11075;47.944;11.776;2023-05-21T09:59:00;94434.75;;;20.95;24.26
21826;BME280;11075;47.944;11.776;2023-05-21T10:01:31;94429.16;;;19.45;24.26
21826;BME280;11075;47.944;11.776;2023-05-21T10:04:01;94432.66;;;19.49;23.89
21826;BME280;11075;47.944;11.776;2023-05-21T10:06:29;94421.28;;;20.02;24.56
21826;BME280;11075;47.944;11.776;2023-05-21T10:09:02;94435.16;;;20.22;23.78
21826;BME280;11075;47.944;11.776;2023-05-21T10:11:32;94447.97;;;22.91;22.05
21826;BME280;11075;47.944;11.776;2023-05-21T10:14:04;94436.47;;;22.13;22.66
21826;BME280;11075;47.944;11.776;2023-05-21T10:16:34;94447.53;;;22.52;21.67
21826;BME280;11075;47.944;11.776;2023-05-21T10:19:02;94467.91;;;23.67;20.23
21826;BME280;11075;47.944;11.776;2023-05-21T10:21:31;94451.25;;;22.42;21.30
21826;BME280;11075;47.944;11.776;2023-05-21T10:24:01;94456.53;;;23.12;20.17
21826;BME280;11075;47.944;11.776;2023-05-21T10:26:29;94407.47;;;20.54;23.75
21826;BME280;11075;47.944;11.776;2023-05-21T10:28:56;94402.69;;;19.38;24.09
21826;BME280;11075;47.944;11.776;2023-05-21T10:31:26;94422.13;;;20.37;22.65
21826;BME280;11075;47.944;11.776;2023-05-21T10:33:54;94414.22;;;20.05;23.19
21826;BME280;11075;47.944;11.776;2023-05-21T10:36:23;94418.09;;;20.79;22.37
21826;BME280;11075;47.944;11.776;2023-05-21T10:38:50;94419.84;;;20.65;22.61
21826;BME280;11075;47.944;11.776;2023-05-21T10:41:18;94417.41;;;19.99;22.32
21826;BME280;11075;47.944;11.776;2023-05-21T10:44:10;94422.50;;;21.57;21.31
21826;BME280;11075;47.944;11.776;2023-05-21T10:47:09;94423.53;;;22.56;21.04
21826;BME280;11075;47.944;11.776;2023-05-21T11:00:42;94425.63;;;23.08;20.39
21826;BME280;11075;47.944;11.776;2023-05-21T11:03:11;94441.59;;;24.31;19.65
21826;BME280;11075;47.944;11.776;2023-05-21T11:06:00;94475.94;;;23.94;18.30
21826;BME280;11075;47.944;11.776;2023-05-21T11:08:29;94478.97;;;25.82;17.55
21826;BME280;11075;47.944;11.776;2023-05-21T11:11:02;94462.25;;;24.23;18.41
21826;BME280;11075;47.944;11.776;2023-05-21T11:13:46;94462.59;;;23.24;18.90
21826;BME280;11075;47.944;11.776;2023-05-21T11:16:16;94484.25;;;26.15;16.20
21826;BME280;11075;47.944;11.776;2023-05-21T11:21:17;94450.78;;;22.87;18.36
21826;BME280;11075;47.944;11.776;2023-05-21T11:26:22;94487.63;;;27.01;15.60
21826;BME280;11075;47.944;11.776;2023-05-21T11:29:09;94496.44;;;25.12;16.28
21826;BME280;11075;47.944;11.776;2023-05-21T11:31:37;94472.47;;;25.51;16.96
21826;BME280;11075;47.944;11.776;2023-05-21T11:36:40;94464.66;;;24.95;17.04
21826;BME280;11075;47.944;11.776;2023-05-21T11:39:16;94473.47;;;25.02;16.73
21826;BME280;11075;47.944;11.776;2023-05-21T11:41:58;94486.47;;;27.11;15.46
21826;BME280;11075;47.944;11.776;2023-05-21T11:44:41;94463.28;;;26.17;16.56
21826;BME280;11075;47.944;11.776;2023-05-21T11:47:10;94480.09;;;26.79;15.76
21826;BME280;11075;47.944;11.776;2023-05-21T11:49:38;94474.84;;;26.94;16.02
21826;BME280;11075;47.944;11.776;2023-05-21T11:52:06;94511.97;;;27.37;14.57
21826;BME280;11075;47.944;11.776;2023-05-21T11:54:43;94472.88;;;24.82;16.52
21826;BME280;11075;47.944;11.776;2023-05-21T11:57:12;94479.19;;;25.88;15.91
21826;BME280;11075;47.944;11.776;2023-05-21T11:59:47;94471.75;;;26.23;16.05
21826;BME280;11075;47.944;11.776;2023-05-21T12:02:19;94466.63;;;24.04;16.37
21826;BME280;11075;47.944;11.776;2023-05-21T12:04:47;94464.59;;;23.03;16.64
21826;BME280;11075;47.944;11.776;2023-05-21T12:07:16;94457.47;;;23.26;17.29
21826;BME280;11075;47.944;11.776;2023-05-21T12:09:43;94453.41;;;23.82;17.01
21826;BME280;11075;47.944;11.776;2023-05-21T12:12:13;94459.53;;;23.38;16.88
21826;BME280;11075;47.944;11.776;2023-05-21T12:14:44;94450.34;;;23.44;18.10
21826;BME280;11075;47.944;11.776;2023-05-21T12:17:14;94438.97;;;23.95;18.25
21826;BME280;11075;47.944;11.776;2023-05-21T12:19:42;94430.53;;;24.18;17.83
21826;BME280;11075;47.944;11.776;2023-05-21T12:22:09;94424.84;;;23.08;18.74
21826;BME280;11075;47.944;11.776;2023-05-21T12:24:37;94438.59;;;24.25;16.82
21826;BME280;11075;47.944;11.776;2023-05-21T12:27:06;94409.66;;;22.01;19.27
21826;BME280;11075;47.944;11.776;2023-05-21T12:29:36;94407.69;;;23.72;18.32
21826;BME280;11075;47.944;11.776;2023-05-21T12:32:05;94417.13;;;22.43;18.88
21826;BME280;11075;47.944;11.776;2023-05-21T12:34:52;94428.19;;;22.40;18.14
21826;BME280;11075;47.944;11.776;2023-05-21T12:37:24;94403.56;;;22.13;19.37
21826;BME280;11075;47.944;11.776;2023-05-21T12:39:54;94399.41;;;24.50;19.12
21826;BME280;11075;47.944;11.776;2023-05-21T12:42:29;94394.22;;;23.09;19.33
21826;BME280;11075;47.944;11.776;2023-05-21T12:44:56;94394.19;;;23.29;19.20
21826;BME280;11075;47.944;11.776;2023-05-21T12:47:25;94398.94;;;23.09;19.12
21826;BME280;11075;47.944;11.776;2023-05-21T12:49:53;94394.53;;;23.31;19.61
21826;BME280;11075;47.944;11.776;2023-05-21T12:52:24;94389.28;;;24.02;19.34
21826;BME280;11075;47.944;11.776;2023-05-21T12:54:52;94404.53;;;24.64;18.01
21826;BME280;11075;47.944;11.776;2023-05-21T12:57:21;94413.06;;;22.91;18.21
21826;BME280;11075;47.944;11.776;2023-05-21T12:59:51;94426.41;;;23.45;18.13
21826;BME280;11075;47.944;11.776;2023-05-21T13:02:26;94381.78;;;21.82;19.99
21826;BME280;11075;47.944;11.776;2023-05-21T13:05:04;94385.41;;;21.76;20.32
21826;BME280;11075;47.944;11.776;2023-05-21T13:07:34;94379.00;;;22.29;19.96
21826;BME280;11075;47.944;11.776;2023-05-21T13:10:02;94373.25;;;22.20;20.70
21826;BME280;11075;47.944;11.776;2023-05-21T13:12:31;94363.66;;;23.07;20.41
21826;BME280;11075;47.944;11.776;2023-05-21T13:15:00;94361.22;;;22.73;21.05
21826;BME280;11075;47.944;11.776;2023-05-21T13:17:27;94380.13;;;21.88;19.94
21826;BME280;11075;47.944;11.776;2023-05-21T13:20:14;94366.56;;;21.04;20.20
21826;BME280;11075;47.944;11.776;2023-05-21T13:22:45;94331.44;;;21.22;21.80
21826;BME280;11075;47.944;11.776;2023-05-21T13:25:15;94366.72;;;24.07;20.06
21826;BME280;11075;47.944;11.776;2023-05-21T13:27:43;94332.53;;;22.78;21.82
21826;BME280;11075;47.944;11.776;2023-05-21T13:30:11;94321.34;;;21.66;22.39
21826;BME280;11075;47.944;11.776;2023-05-21T13:32:39;94336.91;;;23.28;21.37